sensor_id;sensor_type;location;lat;lon;timestamp;P1;durP1;ratioP1;P2;durP2;ratioP2
37641;SDS011;23486;51.956;5.888;2022-07-29T00:00:38;2.90;;;0.20;;
37641;SDS011;23486;51.956;5.888;2022-07-29T00:03:04;3.47;;;0.40;;
37641;SDS011;23486;51.956;5.888;2022-07-29T00:05:29;1.90;;;0.40;;
37641;SDS011;23486;51.956;5.888;2022-07-29T00:07:55;2.67;;;0.40;;
37641;SDS011;23486;51.956;5.888;2022-07-29T00:10:21;2.28;;;0.30;;
37641;SDS011;23486;51.956;5.888;2022-07-29T00:12:46;4.00;;;0.40;;
37641;SDS011;23486;51.956;5.888;2022-07-29T00:15:12;2.83;;;0.30;;
37641;SDS011;23486;51.956;5.888;2022-07-29T00:17:38;2.42;;;0.40;;
37641;SDS011;23486;51.956;5.888;2022-07-29T00:20:04;3.20;;;0.57;;
37641;SDS011;23486;51.956;5.888;2022-07-29T00:22:30;3.03;;;0.40;;
37641;SDS011;23486;51.956;5.888;2022-07-29T00:24:55;2.70;;;0.30;;
37641;SDS011;23486;51.956;5.888;2022-07-29T00:27:21;2.35;;;0.40;;
37641;SDS011;23486;51.956;5.888;2022-07-29T00:29:47;1.88;;;0.40;;
37641;SDS011;23486;51.956;5.888;2022-07-29T00:32:12;2.63;;;0.40;;
37641;SDS011;23486;51.956;5.888;2022-07-29T00:34:38;2.63;;;0.40;;
37641;SDS011;23486;51.956;5.888;2022-07-29T00:37:22;2.00;;;0.30;;
37641;SDS011;23486;51.956;5.888;2022-07-29T00:39:50;2.00;;;0.30;;
37641;SDS011;23486;51.956;5.888;2022-07-29T00:42:16;1.67;;;0.38;;
37641;SDS011;23486;51.956;5.888;2022-07-29T00:44:42;2.67;;;0.35;;
37641;SDS011;23486;51.956;5.888;2022-07-29T00:47:08;3.35;;;0.40;;
37641;SDS011;23486;51.956;5.888;2022-07-29T00:49:35;1.00;;;0.30;;
37641;SDS011;23486;51.956;5.888;2022-07-29T00:52:02;1.73;;;0.40;;
37641;SDS011;23486;51.956;5.888;2022-07-29T00:54:35;1.95;;;0.40;;
37641;SDS011;23486;51.956;5.888;2022-07-29T00:57:01;2.30;;;0.50;;
37641;SDS011;23486;51.956;5.888;2022-07-29T00:59:27;2.22;;;0.30;;
37641;SDS011;23486;51.956;5.888;2022-07-29T01:01:54;2.92;;;0.68;;
37641;SDS011;23486;51.956;5.888;2022-07-29T01:04:20;5.60;;;0.57;;
37641;SDS011;23486;51.956;5.888;2022-07-29T01:06:46;2.70;;;0.45;;
37641;SDS011;23486;51.956;5.888;2022-07-29T01:09:13;2.60;;;0.40;;
37641;SDS011;23486;51.956;5.888;2022-07-29T01:11:40;4.22;;;0.47;;
37641;SDS011;23486;51.956;5.888;2022-07-29T01:14:06;4.35;;;0.50;;
37641;SDS011;23486;51.956;5.888;2022-07-29T01:16:33;3.05;;;0.40;;
37641;SDS011;23486;51.956;5.888;2022-07-29T01:19:33;4.18;;;0.40;;
37641;SDS011;23486;51.956;5.888;2022-07-29T01:24:54;1.70;;;0.30;;
37641;SDS011;23486;51.956;5.888;2022-07-29T01:30:48;1.98;;;0.43;;
37641;SDS011;23486;51.956;5.888;2022-07-29T01:33:17;2.22;;;0.60;;
37641;SDS011;23486;51.956;5.888;2022-07-29T01:36:06;2.55;;;0.60;;
37641;SDS011;23486;51.956;5.888;2022-07-29T01:38:38;2.93;;;0.43;;
37641;SDS011;23486;51.956;5.888;2022-07-29T01:41:07;1.75;;;0.50;;
37641;SDS011;23486;51.956;5.888;2022-07-29T01:43:38;2.55;;;0.57;;
37641;SDS011;23486;51.956;5.888;2022-07-29T01:46:09;6.68;;;0.70;;
37641;SDS011;23486;51.956;5.888;2022-07-29T01:48:45;1.80;;;0.45;;
37641;SDS011;23486;51.956;5.888;2022-07-29T01:53:59;1.30;;;0.43;;
37641;SDS011;23486;51.956;5.888;2022-07-29T01:56:49;2.30;;;0.50;;
37641;SDS011;23486;51.956;5.888;2022-07-29T01:59:19;4.25;;;0.60;;
37641;SDS011;23486;51.956;5.888;2022-07-29T02:01:48;2.97;;;0.40;;
37641;SDS011;23486;51.956;5.888;2022-07-29T02:04:15;3.58;;;0.32;;
37641;SDS011;23486;51.956;5.888;2022-07-29T02:06:43;3.70;;;0.50;;
37641;SDS011;23486;51.956;5.888;2022-07-29T02:09:13;1.38;;;0.30;;
37641;SDS011;23486;51.956;5.888;2022-07-29T02:11:41;2.55;;;0.40;;
37641;SDS011;23486;51.956;5.888;2022-07-29T02:14:20;4.05;;;0.40;;
37641;SDS011;23486;51.956;5.888;2022-07-29T02:16:49;2.20;;;0.30;;
37641;SDS011;23486;51.956;5.888;2022-07-29T02:19:18;1.27;;;0.32;;
37641;SDS011;23486;51.956;5.888;2022-07-29T02:21:50;2.22;;;0.38;;
37641;SDS011;23486;51.956;5.888;2022-07-29T02:24:18;2.15;;;0.40;;
37641;SDS011;23486;51.956;5.888;2022-07-29T02:26:46;1.38;;;0.40;;
37641;SDS011;23486;51.956;5.888;2022-07-29T02:29:13;1.58;;;0.40;;
37641;SDS011;23486;51.956;5.888;2022-07-29T02:31:40;1.15;;;0.30;;
37641;SDS011;23486;51.956;5.888;2022-07-29T02:34:08;1.88;;;0.32;;
37641;SDS011;23486;51.956;5.888;2022-07-29T02:36:36;2.88;;;0.47;;
37641;SDS011;23486;51.956;5.888;2022-07-29T02:39:02;2.35;;;0.40;;
37641;SDS011;23486;51.956;5.888;2022-07-29T02:41:38;2.03;;;0.45;;
37641;SDS011;23486;51.956;5.888;2022-07-29T02:44:11;2.53;;;0.50;;
37641;SDS011;23486;51.956;5.888;2022-07-29T02:46:51;2.92;;;0.40;;
37641;SDS011;23486;51.956;5.888;2022-07-29T02:51:51;5.40;;;0.60;;
37641;SDS011;23486;51.956;5.888;2022-07-29T02:57:08;2.10;;;0.50;;
37641;SDS011;23486;51.956;5.888;2022-07-29T02:59:39;2.40;;;0.50;;
37641;SDS011;23486;51.956;5.888;2022-07-29T03:02:07;3.50;;;0.50;;
37641;SDS011;23486;51.956;5.888;2022-07-29T03:04:34;3.08;;;0.60;;
37641;SDS011;23486;51.956;5.888;2022-07-29T03:07:04;1.95;;;0.60;;
37641;SDS011;23486;51.956;5.888;2022-07-29T03:09:30;2.70;;;0.60;;
37641;SDS011;23486;51.956;5.888;2022-07-29T03:11:57;3.47;;;0.73;;
37641;SDS011;23486;51.956;5.888;2022-07-29T03:14:29;5.57;;;1.05;;
37641;SDS011;23486;51.956;5.888;2022-07-29T03:16:56;4.53;;;0.80;;
37641;SDS011;23486;51.956;5.888;2022-07-29T03:19:22;4.22;;;1.00;;
37641;SDS011;23486;51.956;5.888;2022-07-29T03:21:48;5.10;;;0.85;;
37641;SDS011;23486;51.956;5.888;2022-07-29T03:24:27;2.53;;;0.70;;
37641;SDS011;23486;51.956;5.888;2022-07-29T03:26:56;4.10;;;1.10;;
37641;SDS011;23486;51.956;5.888;2022-07-29T03:29:23;3.50;;;1.20;;
37641;SDS011;23486;51.956;5.888;2022-07-29T03:31:54;2.78;;;0.93;;
37641;SDS011;23486;51.956;5.888;2022-07-29T03:34:21;2.50;;;0.88;;
37641;SDS011;23486;51.956;5.888;2022-07-29T03:36:47;2.63;;;0.80;;
37641;SDS011;23486;51.956;5.888;2022-07-29T03:39:20;7.60;;;1.23;;
37641;SDS011;23486;51.956;5.888;2022-07-29T03:41:49;2.08;;;0.80;;
37641;SDS011;23486;51.956;5.888;2022-07-29T03:44:18;2.88;;;0.80;;
37641;SDS011;23486;51.956;5.888;2022-07-29T03:46:49;4.07;;;0.80;;
37641;SDS011;23486;51.956;5.888;2022-07-29T03:49:16;2.83;;;1.00;;
37641;SDS011;23486;51.956;5.888;2022-07-29T03:51:44;4.80;;;1.38;;
37641;SDS011;23486;51.956;5.888;2022-07-29T03:54:10;3.50;;;1.20;;
37641;SDS011;23486;51.956;5.888;2022-07-29T03:56:38;4.68;;;1.27;;
37641;SDS011;23486;51.956;5.888;2022-07-29T03:59:09;4.80;;;1.17;;
37641;SDS011;23486;51.956;5.888;2022-07-29T04:01:45;4.82;;;1.38;;
37641;SDS011;23486;51.956;5.888;2022-07-29T04:04:11;4.15;;;0.95;;
37641;SDS011;23486;51.956;5.888;2022-07-29T04:06:38;4.30;;;1.05;;
37641;SDS011;23486;51.956;5.888;2022-07-29T04:09:04;4.72;;;1.52;;
37641;SDS011;23486;51.956;5.888;2022-07-29T04:11:30;4.10;;;1.50;;
37641;SDS011;23486;51.956;5.888;2022-07-29T04:13:56;3.67;;;1.40;;
37641;SDS011;23486;51.956;5.888;2022-07-29T04:16:21;2.35;;;1.35;;
37641;SDS011;23486;51.956;5.888;2022-07-29T04:18:47;2.50;;;1.42;;
37641;SDS011;23486;51.956;5.888;2022-07-29T04:21:15;3.75;;;1.10;;
37641;SDS011;23486;51.956;5.888;2022-07-29T04:23:43;3.03;;;0.75;;
37641;SDS011;23486;51.956;5.888;2022-07-29T04:26:13;3.08;;;1.15;;
37641;SDS011;23486;51.956;5.888;2022-07-29T04:28:39;3.45;;;0.70;;
37641;SDS011;23486;51.956;5.888;2022-07-29T04:31:05;3.55;;;1.48;;
37641;SDS011;23486;51.956;5.888;2022-07-29T04:33:30;5.22;;;1.52;;
37641;SDS011;23486;51.956;5.888;2022-07-29T04:35:59;6.22;;;1.13;;
37641;SDS011;23486;51.956;5.888;2022-07-29T04:38:25;3.53;;;1.30;;
37641;SDS011;23486;51.956;5.888;2022-07-29T04:40:50;4.50;;;1.73;;
37641;SDS011;23486;51.956;5.888;2022-07-29T04:43:16;3.58;;;1.38;;
37641;SDS011;23486;51.956;5.888;2022-07-29T04:45:42;8.85;;;1.45;;
37641;SDS011;23486;51.956;5.888;2022-07-29T04:48:10;4.40;;;1.02;;
37641;SDS011;23486;51.956;5.888;2022-07-29T04:50:37;4.80;;;1.73;;
37641;SDS011;23486;51.956;5.888;2022-07-29T04:53:04;6.50;;;2.30;;
37641;SDS011;23486;51.956;5.888;2022-07-29T04:55:30;3.90;;;1.45;;
37641;SDS011;23486;51.956;5.888;2022-07-29T04:57:55;5.57;;;1.17;;
37641;SDS011;23486;51.956;5.888;2022-07-29T05:00:21;3.58;;;1.20;;
37641;SDS011;23486;51.956;5.888;2022-07-29T05:02:48;4.53;;;1.60;;
37641;SDS011;23486;51.956;5.888;2022-07-29T05:05:14;3.35;;;1.40;;
37641;SDS011;23486;51.956;5.888;2022-07-29T05:07:39;3.92;;;1.38;;
37641;SDS011;23486;51.956;5.888;2022-07-29T05:10:05;4.72;;;1.27;;
37641;SDS011;23486;51.956;5.888;2022-07-29T05:12:31;4.13;;;1.10;;
37641;SDS011;23486;51.956;5.888;2022-07-29T05:14:56;7.10;;;1.70;;
37641;SDS011;23486;51.956;5.888;2022-07-29T05:17:22;4.25;;;1.55;;
37641;SDS011;23486;51.956;5.888;2022-07-29T05:19:48;5.50;;;1.88;;
37641;SDS011;23486;51.956;5.888;2022-07-29T05:22:18;4.28;;;1.20;;
37641;SDS011;23486;51.956;5.888;2022-07-29T05:24:44;7.88;;;1.98;;
37641;SDS011;23486;51.956;5.888;2022-07-29T05:27:09;3.08;;;0.73;;
37641;SDS011;23486;51.956;5.888;2022-07-29T05:29:35;2.38;;;0.85;;
37641;SDS011;23486;51.956;5.888;2022-07-29T05:32:01;4.10;;;1.00;;
37641;SDS011;23486;51.956;5.888;2022-07-29T05:34:27;2.95;;;1.15;;
37641;SDS011;23486;51.956;5.888;2022-07-29T05:36:53;3.72;;;1.40;;
37641;SDS011;23486;51.956;5.888;2022-07-29T05:39:18;3.67;;;1.10;;
37641;SDS011;23486;51.956;5.888;2022-07-29T05:41:44;3.70;;;1.30;;
37641;SDS011;23486;51.956;5.888;2022-07-29T05:44:09;3.67;;;1.00;;
37641;SDS011;23486;51.956;5.888;2022-07-29T05:46:36;5.07;;;1.30;;
37641;SDS011;23486;51.956;5.888;2022-07-29T05:49:01;2.63;;;0.77;;
37641;SDS011;23486;51.956;5.888;2022-07-29T05:51:27;2.75;;;1.00;;
37641;SDS011;23486;51.956;5.888;2022-07-29T05:53:53;5.47;;;1.40;;
37641;SDS011;23486;51.956;5.888;2022-07-29T05:56:18;4.55;;;1.00;;
37641;SDS011;23486;51.956;5.888;2022-07-29T05:58:44;3.45;;;0.80;;
37641;SDS011;23486;51.956;5.888;2022-07-29T06:01:10;2.47;;;0.98;;
37641;SDS011;23486;51.956;5.888;2022-07-29T06:03:36;2.83;;;1.20;;
37641;SDS011;23486;51.956;5.888;2022-07-29T06:06:03;2.78;;;1.38;;
37641;SDS011;23486;51.956;5.888;2022-07-29T06:08:29;2.63;;;1.10;;
37641;SDS011;23486;51.956;5.888;2022-07-29T06:10:54;2.30;;;1.08;;
37641;SDS011;23486;51.956;5.888;2022-07-29T06:13:23;7.13;;;2.05;;
37641;SDS011;23486;51.956;5.888;2022-07-29T06:15:49;4.07;;;1.27;;
37641;SDS011;23486;51.956;5.888;2022-07-29T06:18:14;2.83;;;1.00;;
37641;SDS011;23486;51.956;5.888;2022-07-29T06:20:40;5.90;;;1.50;;
37641;SDS011;23486;51.956;5.888;2022-07-29T06:23:05;3.03;;;0.80;;
37641;SDS011;23486;51.956;5.888;2022-07-29T06:25:31;3.90;;;1.42;;
37641;SDS011;23486;51.956;5.888;2022-07-29T06:27:59;3.40;;;1.00;;
37641;SDS011;23486;51.956;5.888;2022-07-29T06:30:25;4.30;;;0.93;;
37641;SDS011;23486;51.956;5.888;2022-07-29T06:32:51;5.28;;;1.30;;
37641;SDS011;23486;51.956;5.888;2022-07-29T06:35:17;4.72;;;1.65;;
37641;SDS011;23486;51.956;5.888;2022-07-29T06:37:42;2.85;;;1.15;;
37641;SDS011;23486;51.956;5.888;2022-07-29T06:40:08;4.40;;;1.10;;
37641;SDS011;23486;51.956;5.888;2022-07-29T06:42:53;3.88;;;0.95;;
37641;SDS011;23486;51.956;5.888;2022-07-29T06:45:18;4.05;;;1.05;;
37641;SDS011;23486;51.956;5.888;2022-07-29T06:47:44;3.85;;;1.02;;
37641;SDS011;23486;51.956;5.888;2022-07-29T06:50:09;3.15;;;0.77;;
37641;SDS011;23486;51.956;5.888;2022-07-29T06:52:37;4.50;;;1.10;;
37641;SDS011;23486;51.956;5.888;2022-07-29T06:55:03;2.90;;;1.20;;
37641;SDS011;23486;51.956;5.888;2022-07-29T06:57:29;3.20;;;1.05;;
37641;SDS011;23486;51.956;5.888;2022-07-29T06:59:58;3.05;;;0.80;;
37641;SDS011;23486;51.956;5.888;2022-07-29T07:02:23;5.22;;;1.48;;
37641;SDS011;23486;51.956;5.888;2022-07-29T07:04:49;3.78;;;1.10;;
37641;SDS011;23486;51.956;5.888;2022-07-29T07:07:15;2.60;;;0.77;;
37641;SDS011;23486;51.956;5.888;2022-07-29T07:09:40;3.08;;;0.80;;
37641;SDS011;23486;51.956;5.888;2022-07-29T07:12:06;4.80;;;0.80;;
37641;SDS011;23486;51.956;5.888;2022-07-29T07:14:32;4.47;;;1.20;;
37641;SDS011;23486;51.956;5.888;2022-07-29T07:16:57;3.88;;;0.90;;
37641;SDS011;23486;51.956;5.888;2022-07-29T07:19:28;6.25;;;0.80;;
37641;SDS011;23486;51.956;5.888;2022-07-29T07:21:53;3.65;;;1.08;;
37641;SDS011;23486;51.956;5.888;2022-07-29T07:24:19;6.38;;;0.80;;
37641;SDS011;23486;51.956;5.888;2022-07-29T07:26:44;2.72;;;0.90;;
37641;SDS011;23486;51.956;5.888;2022-07-29T07:29:13;3.40;;;1.00;;
37641;SDS011;23486;51.956;5.888;2022-07-29T07:31:39;5.88;;;1.15;;
37641;SDS011;23486;51.956;5.888;2022-07-29T07:34:04;3.20;;;0.98;;
37641;SDS011;23486;51.956;5.888;2022-07-29T07:36:30;2.20;;;0.65;;
37641;SDS011;23486;51.956;5.888;2022-07-29T07:38:55;2.08;;;0.75;;
37641;SDS011;23486;51.956;5.888;2022-07-29T07:41:21;4.28;;;0.90;;
37641;SDS011;23486;51.956;5.888;2022-07-29T07:43:47;2.78;;;0.73;;
37641;SDS011;23486;51.956;5.888;2022-07-29T07:46:13;4.85;;;1.15;;
37641;SDS011;23486;51.956;5.888;2022-07-29T07:48:39;3.95;;;0.82;;
37641;SDS011;23486;51.956;5.888;2022-07-29T07:51:05;4.32;;;0.80;;
37641;SDS011;23486;51.956;5.888;2022-07-29T07:53:31;2.17;;;0.88;;
37641;SDS011;23486;51.956;5.888;2022-07-29T07:55:56;2.92;;;0.70;;
37641;SDS011;23486;51.956;5.888;2022-07-29T07:58:22;4.50;;;0.95;;
37641;SDS011;23486;51.956;5.888;2022-07-29T08:00:47;3.38;;;0.80;;
37641;SDS011;23486;51.956;5.888;2022-07-29T08:03:13;6.00;;;0.80;;
37641;SDS011;23486;51.956;5.888;2022-07-29T08:05:39;2.45;;;1.00;;
37641;SDS011;23486;51.956;5.888;2022-07-29T08:08:05;3.70;;;1.10;;
37641;SDS011;23486;51.956;5.888;2022-07-29T08:10:31;2.30;;;0.90;;
37641;SDS011;23486;51.956;5.888;2022-07-29T08:13:15;2.17;;;0.90;;
37641;SDS011;23486;51.956;5.888;2022-07-29T08:15:41;3.28;;;0.80;;
37641;SDS011;23486;51.956;5.888;2022-07-29T08:18:08;5.88;;;1.17;;
37641;SDS011;23486;51.956;5.888;2022-07-29T08:20:33;3.08;;;0.90;;
37641;SDS011;23486;51.956;5.888;2022-07-29T08:23:04;2.85;;;0.80;;
37641;SDS011;23486;51.956;5.888;2022-07-29T08:25:31;5.47;;;0.80;;
37641;SDS011;23486;51.956;5.888;2022-07-29T08:27:57;2.25;;;0.75;;
37641;SDS011;23486;51.956;5.888;2022-07-29T08:30:23;5.47;;;1.15;;
37641;SDS011;23486;51.956;5.888;2022-07-29T08:32:48;2.08;;;0.80;;
37641;SDS011;23486;51.956;5.888;2022-07-29T08:35:18;2.13;;;0.70;;
37641;SDS011;23486;51.956;5.888;2022-07-29T08:37:44;2.67;;;1.00;;
37641;SDS011;23486;51.956;5.888;2022-07-29T08:40:10;3.42;;;0.70;;
37641;SDS011;23486;51.956;5.888;2022-07-29T08:42:36;4.30;;;0.90;;
37641;SDS011;23486;51.956;5.888;2022-07-29T08:45:03;3.47;;;1.13;;
37641;SDS011;23486;51.956;5.888;2022-07-29T08:47:29;2.17;;;0.82;;
37641;SDS011;23486;51.956;5.888;2022-07-29T08:49:55;3.50;;;0.75;;
37641;SDS011;23486;51.956;5.888;2022-07-29T08:52:20;5.13;;;0.68;;
37641;SDS011;23486;51.956;5.888;2022-07-29T08:54:48;2.00;;;0.60;;
37641;SDS011;23486;51.956;5.888;2022-07-29T08:57:15;2.88;;;0.88;;
37641;SDS011;23486;51.956;5.888;2022-07-29T08:59:42;3.60;;;0.60;;
37641;SDS011;23486;51.956;5.888;2022-07-29T09:02:10;3.72;;;1.02;;
37641;SDS011;23486;51.956;5.888;2022-07-29T09:04:43;2.97;;;0.90;;
37641;SDS011;23486;51.956;5.888;2022-07-29T09:07:10;2.10;;;0.75;;
37641;SDS011;23486;51.956;5.888;2022-07-29T09:09:40;2.95;;;0.80;;
37641;SDS011;23486;51.956;5.888;2022-07-29T09:12:07;2.85;;;0.80;;
37641;SDS011;23486;51.956;5.888;2022-07-29T09:14:36;2.22;;;0.90;;
37641;SDS011;23486;51.956;5.888;2022-07-29T09:17:05;2.95;;;0.80;;
37641;SDS011;23486;51.956;5.888;2022-07-29T09:19:35;6.38;;;1.60;;
37641;SDS011;23486;51.956;5.888;2022-07-29T09:22:03;4.40;;;1.00;;
37641;SDS011;23486;51.956;5.888;2022-07-29T09:24:40;6.13;;;0.80;;
37641;SDS011;23486;51.956;5.888;2022-07-29T09:27:25;2.15;;;0.95;;
37641;SDS011;23486;51.956;5.888;2022-07-29T09:29:58;3.97;;;0.95;;
37641;SDS011;23486;51.956;5.888;2022-07-29T09:32:25;4.07;;;0.90;;
37641;SDS011;23486;51.956;5.888;2022-07-29T09:34:51;3.35;;;0.98;;
37641;SDS011;23486;51.956;5.888;2022-07-29T09:37:44;3.60;;;0.90;;
37641;SDS011;23486;51.956;5.888;2022-07-29T09:40:17;3.50;;;0.88;;
37641;SDS011;23486;51.956;5.888;2022-07-29T09:42:45;3.88;;;1.05;;
37641;SDS011;23486;51.956;5.888;2022-07-29T09:45:11;4.38;;;1.08;;
37641;SDS011;23486;51.956;5.888;2022-07-29T09:47:45;3.10;;;1.20;;
37641;SDS011;23486;51.956;5.888;2022-07-29T09:50:14;4.10;;;1.10;;
37641;SDS011;23486;51.956;5.888;2022-07-29T09:52:44;2.85;;;1.13;;
37641;SDS011;23486;51.956;5.888;2022-07-29T09:55:16;3.08;;;1.10;;
37641;SDS011;23486;51.956;5.888;2022-07-29T09:57:42;5.65;;;1.52;;
37641;SDS011;23486;51.956;5.888;2022-07-29T10:00:10;1.83;;;0.75;;
37641;SDS011;23486;51.956;5.888;2022-07-29T10:02:38;3.40;;;1.00;;
37641;SDS011;23486;51.956;5.888;2022-07-29T10:05:30;4.63;;;1.13;;
37641;SDS011;23486;51.956;5.888;2022-07-29T10:07:55;2.28;;;1.00;;
37641;SDS011;23486;51.956;5.888;2022-07-29T10:12:57;4.00;;;0.88;;
37641;SDS011;23486;51.956;5.888;2022-07-29T10:15:28;3.15;;;0.90;;
37641;SDS011;23486;51.956;5.888;2022-07-29T10:17:56;2.55;;;1.20;;
37641;SDS011;23486;51.956;5.888;2022-07-29T10:20:26;4.10;;;1.00;;
37641;SDS011;23486;51.956;5.888;2022-07-29T10:22:53;4.57;;;1.02;;
37641;SDS011;23486;51.956;5.888;2022-07-29T10:25:22;2.78;;;0.80;;
37641;SDS011;23486;51.956;5.888;2022-07-29T10:27:51;2.47;;;0.88;;
37641;SDS011;23486;51.956;5.888;2022-07-29T10:30:20;6.40;;;1.10;;
37641;SDS011;23486;51.956;5.888;2022-07-29T10:35:29;3.55;;;1.05;;
37641;SDS011;23486;51.956;5.888;2022-07-29T10:41:32;4.65;;;1.00;;
37641;SDS011;23486;51.956;5.888;2022-07-29T10:44:25;3.38;;;1.10;;
37641;SDS011;23486;51.956;5.888;2022-07-29T10:46:55;5.32;;;0.90;;
37641;SDS011;23486;51.956;5.888;2022-07-29T10:49:25;2.92;;;0.80;;
37641;SDS011;23486;51.956;5.888;2022-07-29T10:51:52;4.35;;;1.00;;
37641;SDS011;23486;51.956;5.888;2022-07-29T10:59:51;5.38;;;0.90;;
37641;SDS011;23486;51.956;5.888;2022-07-29T11:05:12;2.20;;;0.70;;
37641;SDS011;23486;51.956;5.888;2022-07-29T11:10:47;2.97;;;0.63;;
37641;SDS011;23486;51.956;5.888;2022-07-29T11:13:28;5.88;;;0.70;;
37641;SDS011;23486;51.956;5.888;2022-07-29T11:16:07;4.60;;;0.90;;
37641;SDS011;23486;51.956;5.888;2022-07-29T11:18:33;3.85;;;0.70;;
37641;SDS011;23486;51.956;5.888;2022-07-29T11:20:59;3.60;;;1.08;;
37641;SDS011;23486;51.956;5.888;2022-07-29T11:23:31;2.95;;;0.60;;
37641;SDS011;23486;51.956;5.888;2022-07-29T11:31:45;4.18;;;0.85;;
37641;SDS011;23486;51.956;5.888;2022-07-29T11:34:22;3.38;;;0.80;;
37641;SDS011;23486;51.956;5.888;2022-07-29T11:39:45;4.07;;;0.70;;
37641;SDS011;23486;51.956;5.888;2022-07-29T11:47:30;5.70;;;1.67;;
37641;SDS011;23486;51.956;5.888;2022-07-29T11:49:57;4.35;;;0.77;;
37641;SDS011;23486;51.956;5.888;2022-07-29T11:52:23;1.85;;;0.68;;
37641;SDS011;23486;51.956;5.888;2022-07-29T11:55:02;4.65;;;1.80;;
37641;SDS011;23486;51.956;5.888;2022-07-29T11:57:30;4.95;;;2.35;;
37641;SDS011;23486;51.956;5.888;2022-07-29T11:59:56;3.70;;;1.20;;
37641;SDS011;23486;51.956;5.888;2022-07-29T12:02:23;4.65;;;0.80;;
37641;SDS011;23486;51.956;5.888;2022-07-29T12:04:52;11.07;;;1.50;;
37641;SDS011;23486;51.956;5.888;2022-07-29T12:09:54;4.32;;;0.77;;
37641;SDS011;23486;51.956;5.888;2022-07-29T12:12:20;12.15;;;1.42;;
37641;SDS011;23486;51.956;5.888;2022-07-29T12:14:46;5.25;;;0.98;;
37641;SDS011;23486;51.956;5.888;2022-07-29T12:19:56;3.20;;;0.60;;
37641;SDS011;23486;51.956;5.888;2022-07-29T12:22:26;2.80;;;0.60;;
37641;SDS011;23486;51.956;5.888;2022-07-29T12:24:54;4.30;;;0.75;;
37641;SDS011;23486;51.956;5.888;2022-07-29T12:27:21;6.32;;;1.33;;
37641;SDS011;23486;51.956;5.888;2022-07-29T12:29:59;4.70;;;1.17;;
37641;SDS011;23486;51.956;5.888;2022-07-29T12:32:36;3.90;;;0.70;;
37641;SDS011;23486;51.956;5.888;2022-07-29T12:35:06;2.35;;;0.60;;
37641;SDS011;23486;51.956;5.888;2022-07-29T12:37:34;2.60;;;0.95;;
37641;SDS011;23486;51.956;5.888;2022-07-29T12:40:02;4.90;;;0.82;;
37641;SDS011;23486;51.956;5.888;2022-07-29T12:42:29;3.15;;;0.70;;
37641;SDS011;23486;51.956;5.888;2022-07-29T12:44:55;2.22;;;0.60;;
37641;SDS011;23486;51.956;5.888;2022-07-29T12:47:21;6.00;;;0.60;;
37641;SDS011;23486;51.956;5.888;2022-07-29T12:49:47;4.10;;;0.90;;
37641;SDS011;23486;51.956;5.888;2022-07-29T12:52:22;1.88;;;0.70;;
37641;SDS011;23486;51.956;5.888;2022-07-29T12:54:58;3.80;;;0.85;;
37641;SDS011;23486;51.956;5.888;2022-07-29T12:57:26;2.83;;;0.60;;
37641;SDS011;23486;51.956;5.888;2022-07-29T13:00:08;2.67;;;0.60;;
37641;SDS011;23486;51.956;5.888;2022-07-29T13:02:36;3.72;;;0.60;;
37641;SDS011;23486;51.956;5.888;2022-07-29T13:05:03;2.83;;;0.63;;
37641;SDS011;23486;51.956;5.888;2022-07-29T13:07:31;5.60;;;0.80;;
37641;SDS011;23486;51.956;5.888;2022-07-29T13:13:00;5.43;;;0.60;;
37641;SDS011;23486;51.956;5.888;2022-07-29T13:15:45;3.55;;;0.82;;
37641;SDS011;23486;51.956;5.888;2022-07-29T13:18:33;1.83;;;0.55;;
37641;SDS011;23486;51.956;5.888;2022-07-29T13:21:13;2.28;;;0.60;;
37641;SDS011;23486;51.956;5.888;2022-07-29T13:23:40;4.43;;;0.70;;
37641;SDS011;23486;51.956;5.888;2022-07-29T13:26:10;2.00;;;0.50;;
37641;SDS011;23486;51.956;5.888;2022-07-29T13:28:36;1.55;;;0.50;;
37641;SDS011;23486;51.956;5.888;2022-07-29T13:31:02;3.17;;;0.70;;
37641;SDS011;23486;51.956;5.888;2022-07-29T13:33:33;2.90;;;0.77;;
37641;SDS011;23486;51.956;5.888;2022-07-29T13:35:59;5.22;;;0.60;;
37641;SDS011;23486;51.956;5.888;2022-07-29T13:38:25;1.65;;;0.50;;
37641;SDS011;23486;51.956;5.888;2022-07-29T13:40:52;2.72;;;0.70;;
37641;SDS011;23486;51.956;5.888;2022-07-29T13:43:17;3.58;;;0.60;;
37641;SDS011;23486;51.956;5.888;2022-07-29T13:45:43;2.17;;;0.40;;
37641;SDS011;23486;51.956;5.888;2022-07-29T13:48:08;3.55;;;0.50;;
37641;SDS011;23486;51.956;5.888;2022-07-29T13:50:34;3.33;;;0.50;;
37641;SDS011;23486;51.956;5.888;2022-07-29T13:52:59;4.72;;;0.77;;
37641;SDS011;23486;51.956;5.888;2022-07-29T13:55:25;3.80;;;0.50;;
37641;SDS011;23486;51.956;5.888;2022-07-29T13:57:51;2.45;;;0.60;;
37641;SDS011;23486;51.956;5.888;2022-07-29T14:00:16;1.85;;;0.50;;
37641;SDS011;23486;51.956;5.888;2022-07-29T14:02:43;3.58;;;0.70;;
37641;SDS011;23486;51.956;5.888;2022-07-29T14:05:09;1.38;;;0.50;;
37641;SDS011;23486;51.956;5.888;2022-07-29T14:07:36;1.65;;;0.47;;
37641;SDS011;23486;51.956;5.888;2022-07-29T14:10:03;3.90;;;0.85;;
37641;SDS011;23486;51.956;5.888;2022-07-29T14:12:29;2.63;;;0.45;;
37641;SDS011;23486;51.956;5.888;2022-07-29T14:14:55;2.90;;;0.40;;
37641;SDS011;23486;51.956;5.888;2022-07-29T14:17:21;1.98;;;0.60;;
37641;SDS011;23486;51.956;5.888;2022-07-29T14:19:50;4.68;;;0.75;;
37641;SDS011;23486;51.956;5.888;2022-07-29T14:22:16;2.38;;;0.40;;
37641;SDS011;23486;51.956;5.888;2022-07-29T14:24:46;3.72;;;0.70;;
37641;SDS011;23486;51.956;5.888;2022-07-29T14:27:12;2.97;;;0.55;;
37641;SDS011;23486;51.956;5.888;2022-07-29T14:29:37;2.35;;;0.52;;
37641;SDS011;23486;51.956;5.888;2022-07-29T14:32:03;3.05;;;0.50;;
37641;SDS011;23486;51.956;5.888;2022-07-29T14:34:34;4.00;;;0.50;;
37641;SDS011;23486;51.956;5.888;2022-07-29T14:37:00;1.80;;;0.40;;
37641;SDS011;23486;51.956;5.888;2022-07-29T14:39:26;1.65;;;0.40;;
37641;SDS011;23486;51.956;5.888;2022-07-29T14:41:51;1.70;;;0.55;;
37641;SDS011;23486;51.956;5.888;2022-07-29T14:44:17;3.00;;;0.50;;
37641;SDS011;23486;51.956;5.888;2022-07-29T14:46:43;1.63;;;0.40;;
37641;SDS011;23486;51.956;5.888;2022-07-29T14:49:09;1.40;;;0.40;;
37641;SDS011;23486;51.956;5.888;2022-07-29T14:51:37;2.65;;;0.40;;
37641;SDS011;23486;51.956;5.888;2022-07-29T14:54:02;2.75;;;0.50;;
37641;SDS011;23486;51.956;5.888;2022-07-29T14:56:28;5.00;;;0.80;;
37641;SDS011;23486;51.956;5.888;2022-07-29T14:58:55;2.10;;;0.60;;
37641;SDS011;23486;51.956;5.888;2022-07-29T15:01:22;2.72;;;0.35;;
37641;SDS011;23486;51.956;5.888;2022-07-29T15:03:48;2.35;;;0.43;;
37641;SDS011;23486;51.956;5.888;2022-07-29T15:06:13;2.60;;;0.50;;
37641;SDS011;23486;51.956;5.888;2022-07-29T15:08:39;1.65;;;0.50;;
37641;SDS011;23486;51.956;5.888;2022-07-29T15:11:07;1.88;;;0.40;;
37641;SDS011;23486;51.956;5.888;2022-07-29T15:13:33;4.65;;;0.50;;
37641;SDS011;23486;51.956;5.888;2022-07-29T15:16:01;8.18;;;0.70;;
37641;SDS011;23486;51.956;5.888;2022-07-29T15:18:27;2.50;;;0.50;;
37641;SDS011;23486;51.956;5.888;2022-07-29T15:20:53;3.00;;;0.50;;
37641;SDS011;23486;51.956;5.888;2022-07-29T15:23:18;6.22;;;0.50;;
37641;SDS011;23486;51.956;5.888;2022-07-29T15:25:44;3.72;;;0.52;;
37641;SDS011;23486;51.956;5.888;2022-07-29T15:28:09;1.95;;;0.40;;
37641;SDS011;23486;51.956;5.888;2022-07-29T15:30:35;2.22;;;0.50;;
37641;SDS011;23486;51.956;5.888;2022-07-29T15:33:05;1.90;;;0.50;;
37641;SDS011;23486;51.956;5.888;2022-07-29T15:35:34;2.60;;;0.50;;
37641;SDS011;23486;51.956;5.888;2022-07-29T15:38:01;3.10;;;0.40;;
37641;SDS011;23486;51.956;5.888;2022-07-29T15:40:27;3.83;;;0.60;;
37641;SDS011;23486;51.956;5.888;2022-07-29T15:42:53;2.55;;;0.40;;
37641;SDS011;23486;51.956;5.888;2022-07-29T15:45:20;3.08;;;0.60;;
37641;SDS011;23486;51.956;5.888;2022-07-29T15:47:45;1.80;;;0.40;;
37641;SDS011;23486;51.956;5.888;2022-07-29T15:50:11;8.63;;;0.60;;